sensor_id;sensor_type;location;lat;lon;timestamp;pressure;altitude;pressure_sealevel;temperature;humidity
63500;BME280;49654;51.142;14.924;2022-10-17T00:01:40;99937.16;;;16.18;87.25
63500;BME280;49654;51.142;14.924;2022-10-17T00:04:07;99948.00;;;16.08;87.66
63500;BME280;49654;51.142;14.924;2022-10-17T00:06:34;99931.75;;;15.91;87.71
63500;BME280;49654;51.142;14.924;2022-10-17T00:09:01;99935.81;;;15.94;86.94
63500;BME280;49654;51.142;14.924;2022-10-17T00:11:28;99933.81;;;15.96;87.40
63500;BME280;49654;51.142;14.924;2022-10-17T00:13:57;99936.13;;;15.84;87.26
63500;BME280;49654;51.142;14.924;2022-10-17T00:16:26;99933.47;;;15.77;87.92
63500;BME280;49654;51.142;14.924;2022-10-17T00:18:54;99903.78;;;15.70;88.04
63500;BME280;49654;51.142;14.924;2022-10-17T00:21:21;99947.16;;;15.80;87.74
63500;BME280;49654;51.142;14.924;2022-10-17T00:23:49;99931.44;;;15.80;89.95
63500;BME280;49654;51.142;14.924;2022-10-17T00:26:17;99924.22;;;15.60;89.29
63500;BME280;49654;51.142;14.924;2022-10-17T00:28:45;99943.25;;;15.69;89.28
63500;BME280;49654;51.142;14.924;2022-10-17T00:31:12;99946.69;;;15.69;88.93
63500;BME280;49654;51.142;14.924;2022-10-17T00:33:40;99944.38;;;15.60;88.86
63500;BME280;49654;51.142;14.924;2022-10-17T00:36:10;99932.81;;;15.54;87.83
63500;BME280;49654;51.142;14.924;2022-10-17T00:38:38;99940.66;;;15.54;88.26
63500;BME280;49654;51.142;14.924;2022-10-17T00:41:06;99942.19;;;15.63;88.83
63500;BME280;49654;51.142;14.924;2022-10-17T00:43:55;99946.66;;;15.91;89.53
63500;BME280;49654;51.142;14.924;2022-10-17T00:46:24;99944.75;;;15.78;89.12
63500;BME280;49654;51.142;14.924;2022-10-17T00:48:54;99925.50;;;15.64;88.32
63500;BME280;49654;51.142;14.924;2022-10-17T00:51:26;99931.72;;;15.85;88.47
63500;BME280;49654;51.142;14.924;2022-10-17T00:53:56;99936.97;;;15.85;88.38
63500;BME280;49654;51.142;14.924;2022-10-17T00:56:24;99937.31;;;15.82;89.61
63500;BME280;49654;51.142;14.924;2022-10-17T00:58:52;99948.94;;;15.72;90.49
63500;BME280;49654;51.142;14.924;2022-10-17T01:01:19;99945.19;;;15.82;90.15
63500;BME280;49654;51.142;14.924;2022-10-17T01:03:46;99924.16;;;15.75;89.84
63500;BME280;49654;51.142;14.924;2022-10-17T01:06:14;99939.63;;;15.70;88.57
63500;BME280;49654;51.142;14.924;2022-10-17T01:08:41;99944.94;;;15.55;88.21
63500;BME280;49654;51.142;14.924;2022-10-17T01:11:19;99943.84;;;15.49;88.40
63500;BME280;49654;51.142;14.924;2022-10-17T01:13:52;99948.91;;;15.30;88.31
63500;BME280;49654;51.142;14.924;2022-10-17T01:16:34;99947.56;;;15.19;88.32
63500;BME280;49654;51.142;14.924;2022-10-17T01:19:25;99953.25;;;15.22;88.10
63500;BME280;49654;51.142;14.924;2022-10-17T01:22:04;99947.53;;;15.12;87.96
63500;BME280;49654;51.142;14.924;2022-10-17T01:24:47;99961.75;;;15.10;89.03
63500;BME280;49654;51.142;14.924;2022-10-17T01:27:36;99958.81;;;14.98;88.77
63500;BME280;49654;51.142;14.924;2022-10-17T01:33:26;99963.22;;;14.97;89.71
63500;BME280;49654;51.142;14.924;2022-10-17T01:35:58;99954.72;;;15.10;88.57
63500;BME280;49654;51.142;14.924;2022-10-17T01:38:31;99952.50;;;15.28;89.78
63500;BME280;49654;51.142;14.924;2022-10-17T01:41:02;99957.63;;;15.37;90.52
63500;BME280;49654;51.142;14.924;2022-10-17T01:43:36;99953.28;;;15.44;89.80
63500;BME280;49654;51.142;14.924;2022-10-17T01:46:09;99956.09;;;15.42;89.62
63500;BME280;49654;51.142;14.924;2022-10-17T01:48:39;99942.91;;;15.36;89.18
63500;BME280;49654;51.142;14.924;2022-10-17T01:51:12;99953.75;;;15.33;88.79
63500;BME280;49654;51.142;14.924;2022-10-17T01:53:45;99949.72;;;15.30;88.91
63500;BME280;49654;51.142;14.924;2022-10-17T01:56:14;99954.50;;;15.26;88.79
63500;BME280;49654;51.142;14.924;2022-10-17T01:58:46;99951.84;;;15.05;88.77
63500;BME280;49654;51.142;14.924;2022-10-17T02:01:16;99958.94;;;15.26;89.69
63500;BME280;49654;51.142;14.924;2022-10-17T02:03:48;99948.50;;;15.33;87.90
63500;BME280;49654;51.142;14.924;2022-10-17T02:06:16;99939.41;;;15.50;90.54
63500;BME280;49654;51.142;14.924;2022-10-17T02:08:45;99929.91;;;15.64;89.84
63500;BME280;49654;51.142;14.924;2022-10-17T02:11:15;99947.81;;;15.82;90.15
63500;BME280;49654;51.142;14.924;2022-10-17T02:14:03;99947.09;;;15.94;89.20
63500;BME280;49654;51.142;14.924;2022-10-17T02:16:37;99949.03;;;15.86;87.79
63500;BME280;49654;51.142;14.924;2022-10-17T02:19:24;99942.56;;;15.82;88.06
63500;BME280;49654;51.142;14.924;2022-10-17T02:22:03;99950.84;;;15.64;88.36
63500;BME280;49654;51.142;14.924;2022-10-17T02:24:42;99950.22;;;15.62;88.96
63500;BME280;49654;51.142;14.924;2022-10-17T02:27:15;99943.00;;;15.64;89.14
63500;BME280;49654;51.142;14.924;2022-10-17T02:29:46;99959.53;;;15.86;88.70
63500;BME280;49654;51.142;14.924;2022-10-17T02:32:20;99956.69;;;15.87;88.29
63500;BME280;49654;51.142;14.924;2022-10-17T02:34:54;99960.88;;;16.03;88.01
63500;BME280;49654;51.142;14.924;2022-10-17T02:37:25;99960.09;;;16.09;86.86
63500;BME280;49654;51.142;14.924;2022-10-17T02:39:53;99946.00;;;16.10;86.18
63500;BME280;49654;51.142;14.924;2022-10-17T02:42:21;99949.84;;;16.14;86.14
63500;BME280;49654;51.142;14.924;2022-10-17T02:44:51;99944.09;;;16.25;85.55
63500;BME280;49654;51.142;14.924;2022-10-17T02:47:23;99940.13;;;16.36;84.81
63500;BME280;49654;51.142;14.924;2022-10-17T02:49:54;99943.94;;;16.34;84.11
63500;BME280;49654;51.142;14.924;2022-10-17T02:52:27;99950.56;;;16.30;84.30
63500;BME280;49654;51.142;14.924;2022-10-17T02:55:02;99938.25;;;16.30;84.39
63500;BME280;49654;51.142;14.924;2022-10-17T02:57:35;99939.84;;;16.24;84.33
63500;BME280;49654;51.142;14.924;2022-10-17T03:00:05;99933.88;;;16.37;83.55
63500;BME280;49654;51.142;14.924;2022-10-17T03:02:40;99926.75;;;16.24;83.60
63500;BME280;49654;51.142;14.924;2022-10-17T03:05:10;99933.06;;;16.37;83.65
63500;BME280;49654;51.142;14.924;2022-10-17T03:07:37;99900.06;;;16.14;83.26
63500;BME280;49654;51.142;14.924;2022-10-17T03:10:05;99932.75;;;16.18;83.75
63500;BME280;49654;51.142;14.924;2022-10-17T03:12:32;99939.34;;;16.14;84.08
63500;BME280;49654;51.142;14.924;2022-10-17T03:14:59;99945.00;;;16.11;83.87
63500;BME280;49654;51.142;14.924;2022-10-17T03:17:26;99956.88;;;16.07;83.85
63500;BME280;49654;51.142;14.924;2022-10-17T03:19:53;99961.72;;;16.10;84.54
63500;BME280;49654;51.142;14.924;2022-10-17T03:22:22;99958.56;;;16.21;82.67
63500;BME280;49654;51.142;14.924;2022-10-17T03:24:49;99957.91;;;16.13;83.05
63500;BME280;49654;51.142;14.924;2022-10-17T03:27:16;99958.97;;;15.97;82.99
63500;BME280;49654;51.142;14.924;2022-10-17T03:29:43;99958.97;;;15.97;82.95
63500;BME280;49654;51.142;14.924;2022-10-17T03:32:10;99957.06;;;15.84;83.25
63500;BME280;49654;51.142;14.924;2022-10-17T03:34:37;99953.22;;;15.80;83.67
63500;BME280;49654;51.142;14.924;2022-10-17T03:37:04;99936.59;;;15.66;83.87
63500;BME280;49654;51.142;14.924;2022-10-17T03:39:32;99944.69;;;15.71;84.58
63500;BME280;49654;51.142;14.924;2022-10-17T03:41:59;99940.84;;;15.67;84.10
63500;BME280;49654;51.142;14.924;2022-10-17T03:44:26;99922.75;;;15.51;84.51
63500;BME280;49654;51.142;14.924;2022-10-17T03:46:53;99949.91;;;15.71;84.23
63500;BME280;49654;51.142;14.924;2022-10-17T03:49:20;99941.69;;;15.74;84.62
63500;BME280;49654;51.142;14.924;2022-10-17T03:51:47;99941.66;;;15.68;84.43
63500;BME280;49654;51.142;14.924;2022-10-17T03:54:14;99874.75;;;15.22;84.98
63500;BME280;49654;51.142;14.924;2022-10-17T03:56:43;99953.41;;;15.78;84.32
63500;BME280;49654;51.142;14.924;2022-10-17T03:59:11;99941.69;;;15.74;84.05
63500;BME280;49654;51.142;14.924;2022-10-17T04:01:39;99931.59;;;15.71;83.40
63500;BME280;49654;51.142;14.924;2022-10-17T04:04:06;99942.81;;;15.87;83.27
63500;BME280;49654;51.142;14.924;2022-10-17T04:06:34;99945.88;;;15.97;82.83
63500;BME280;49654;51.142;14.924;2022-10-17T04:09:02;99954.00;;;16.02;82.47
63500;BME280;49654;51.142;14.924;2022-10-17T04:11:29;99893.19;;;15.57;82.78
63500;BME280;49654;51.142;14.924;2022-10-17T04:13:58;99945.88;;;15.97;82.54
63500;BME280;49654;51.142;14.924;2022-10-17T04:16:25;99934.13;;;15.86;82.02
63500;BME280;49654;51.142;14.924;2022-10-17T04:18:53;99917.38;;;15.81;81.84
63500;BME280;49654;51.142;14.924;2022-10-17T04:21:21;99901.28;;;15.62;82.21
63500;BME280;49654;51.142;14.924;2022-10-17T04:23:52;99953.91;;;15.89;82.35
63500;BME280;49654;51.142;14.924;2022-10-17T04:26:19;99961.59;;;15.97;81.56
63500;BME280;49654;51.142;14.924;2022-10-17T04:28:46;99942.44;;;15.90;81.89
63500;BME280;49654;51.142;14.924;2022-10-17T04:31:14;99970.34;;;16.04;81.58
63500;BME280;49654;51.142;14.924;2022-10-17T04:33:42;99965.44;;;15.94;81.87
63500;BME280;49654;51.142;14.924;2022-10-17T04:36:11;99949.31;;;15.69;82.10
63500;BME280;49654;51.142;14.924;2022-10-17T04:38:38;99886.03;;;15.23;82.81
63500;BME280;49654;51.142;14.924;2022-10-17T04:41:08;99968.84;;;15.95;82.66
63500;BME280;49654;51.142;14.924;2022-10-17T04:43:37;99974.44;;;16.13;81.73
63500;BME280;49654;51.142;14.924;2022-10-17T04:46:06;99965.25;;;16.24;80.60
63500;BME280;49654;51.142;14.924;2022-10-17T04:48:35;99942.28;;;15.98;80.43
63500;BME280;49654;51.142;14.924;2022-10-17T04:51:03;99861.28;;;15.47;80.37
63500;BME280;49654;51.142;14.924;2022-10-17T04:53:32;99933.00;;;15.95;80.30
63500;BME280;49654;51.142;14.924;2022-10-17T04:56:00;99965.34;;;16.09;80.13
63500;BME280;49654;51.142;14.924;2022-10-17T04:58:27;99941.34;;;15.84;80.94
63500;BME280;49654;51.142;14.924;2022-10-17T05:00:55;99924.00;;;15.76;80.72
63500;BME280;49654;51.142;14.924;2022-10-17T05:03:22;99960.00;;;15.96;80.59
63500;BME280;49654;51.142;14.924;2022-10-17T05:05:50;99972.09;;;15.97;80.68
63500;BME280;49654;51.142;14.924;2022-10-17T05:08:17;99981.75;;;15.96;81.01
63500;BME280;49654;51.142;14.924;2022-10-17T05:10:44;99991.09;;;16.06;80.62
63500;BME280;49654;51.142;14.924;2022-10-17T05:13:12;99939.56;;;15.63;80.44
63500;BME280;49654;51.142;14.924;2022-10-17T05:15:39;99984.94;;;15.92;80.51
63500;BME280;49654;51.142;14.924;2022-10-17T05:18:06;99979.13;;;15.96;80.36
63500;BME280;49654;51.142;14.924;2022-10-17T05:20:33;99978.56;;;16.01;80.04
63500;BME280;49654;51.142;14.924;2022-10-17T05:23:02;99991.06;;;15.99;79.83
63500;BME280;49654;51.142;14.924;2022-10-17T05:25:29;99984.94;;;15.92;80.38
63500;BME280;49654;51.142;14.924;2022-10-17T05:27:56;99909.25;;;15.33;80.27
63500;BME280;49654;51.142;14.924;2022-10-17T05:30:23;99917.88;;;15.48;80.65
63500;BME280;49654;51.142;14.924;2022-10-17T05:32:53;99961.97;;;15.66;80.64
63500;BME280;49654;51.142;14.924;2022-10-17T05:35:21;100003.41;;;15.84;80.63
63500;BME280;49654;51.142;14.924;2022-10-17T05:37:48;100010.69;;;15.88;80.38
63500;BME280;49654;51.142;14.924;2022-10-17T05:40:16;99979.91;;;15.69;80.85
63500;BME280;49654;51.142;14.924;2022-10-17T05:42:47;99982.34;;;15.70;80.43
63500;BME280;49654;51.142;14.924;2022-10-17T05:45:14;100019.31;;;16.03;80.25
63500;BME280;49654;51.142;14.924;2022-10-17T05:47:41;99973.63;;;15.85;79.25
63500;BME280;49654;51.142;14.924;2022-10-17T05:50:09;100015.75;;;16.11;78.95
63500;BME280;49654;51.142;14.924;2022-10-17T05:52:36;99948.22;;;15.64;79.08
63500;BME280;49654;51.142;14.924;2022-10-17T05:55:04;99984.34;;;15.90;79.03
63500;BME280;49654;51.142;14.924;2022-10-17T05:57:32;99968.78;;;15.88;78.67
63500;BME280;49654;51.142;14.924;2022-10-17T05:59:59;100007.22;;;16.02;78.85
63500;BME280;49654;51.142;14.924;2022-10-17T06:02:26;100010.34;;;15.91;79.73
63500;BME280;49654;51.142;14.924;2022-10-17T06:04:54;99957.47;;;15.60;79.68
63500;BME280;49654;51.142;14.924;2022-10-17T06:07:21;100018.06;;;15.99;79.31
63500;BME280;49654;51.142;14.924;2022-10-17T06:09:48;99957.53;;;15.66;79.51
63500;BME280;49654;51.142;14.924;2022-10-17T06:12:15;100015.88;;;16.03;79.23
63500;BME280;49654;51.142;14.924;2022-10-17T06:14:43;99979.72;;;15.92;78.64
63500;BME280;49654;51.142;14.924;2022-10-17T06:17:11;100027.56;;;16.28;78.57
63500;BME280;49654;51.142;14.924;2022-10-17T06:19:38;99947.66;;;15.90;78.24
63500;BME280;49654;51.142;14.924;2022-10-17T06:22:06;100026.78;;;16.35;77.84
63500;BME280;49654;51.142;14.924;2022-10-17T06:24:33;100011.63;;;16.23;78.03
63500;BME280;49654;51.142;14.924;2022-10-17T06:27:00;99959.81;;;15.97;77.49
63500;BME280;49654;51.142;14.924;2022-10-17T06:29:27;100037.34;;;16.41;77.47
63500;BME280;49654;51.142;14.924;2022-10-17T06:31:56;100033.59;;;16.57;77.20
63500;BME280;49654;51.142;14.924;2022-10-17T06:34:23;99999.41;;;16.37;76.80
63500;BME280;49654;51.142;14.924;2022-10-17T06:36:50;100021.19;;;16.38;77.31
63500;BME280;49654;51.142;14.924;2022-10-17T06:39:17;100036.63;;;16.54;76.71
63500;BME280;49654;51.142;14.924;2022-10-17T06:41:44;100038.66;;;16.59;76.45
63500;BME280;49654;51.142;14.924;2022-10-17T06:44:11;100051.31;;;16.76;76.16
63500;BME280;49654;51.142;14.924;2022-10-17T06:46:38;100035.47;;;16.63;75.99
63500;BME280;49654;51.142;14.924;2022-10-17T06:49:16;100068.22;;;16.74;76.40
63500;BME280;49654;51.142;14.924;2022-10-17T06:51:43;100053.44;;;16.66;76.15
63500;BME280;49654;51.142;14.924;2022-10-17T06:54:10;100052.63;;;16.94;75.64
63500;BME280;49654;51.142;14.924;2022-10-17T06:56:37;100045.13;;;16.91;75.27
63500;BME280;49654;51.142;14.924;2022-10-17T06:59:05;100050.03;;;17.00;74.65
63500;BME280;49654;51.142;14.924;2022-10-17T07:01:32;100074.53;;;17.14;74.60
63500;BME280;49654;51.142;14.924;2022-10-17T07:03:59;99970.28;;;16.53;74.17
63500;BME280;49654;51.142;14.924;2022-10-17T07:06:27;100069.28;;;17.21;73.89
63500;BME280;49654;51.142;14.924;2022-10-17T07:08:55;100047.28;;;17.15;73.29
63500;BME280;49654;51.142;14.924;2022-10-17T07:11:22;100084.94;;;17.42;73.38
63500;BME280;49654;51.142;14.924;2022-10-17T07:13:50;100093.25;;;17.52;72.83
63500;BME280;49654;51.142;14.924;2022-10-17T07:16:18;100009.50;;;17.10;72.91
63500;BME280;49654;51.142;14.924;2022-10-17T07:18:47;100072.25;;;17.52;72.68
63500;BME280;49654;51.142;14.924;2022-10-17T07:21:15;100062.94;;;17.50;71.92
63500;BME280;49654;51.142;14.924;2022-10-17T07:23:44;100096.59;;;17.81;71.28
63500;BME280;49654;51.142;14.924;2022-10-17T07:26:12;100085.28;;;17.81;70.99
63500;BME280;49654;51.142;14.924;2022-10-17T07:28:41;100051.28;;;17.72;70.44
63500;BME280;49654;51.142;14.924;2022-10-17T07:31:10;100107.56;;;18.18;70.28
63500;BME280;49654;51.142;14.924;2022-10-17T07:33:38;100029.91;;;17.75;69.86
63500;BME280;49654;51.142;14.924;2022-10-17T07:36:05;100033.16;;;17.77;70.17
63500;BME280;49654;51.142;14.924;2022-10-17T07:38:33;100077.03;;;17.97;70.29
63500;BME280;49654;51.142;14.924;2022-10-17T07:41:05;100121.34;;;18.40;69.78
63500;BME280;49654;51.142;14.924;2022-10-17T07:43:33;100077.03;;;18.10;68.99
63500;BME280;49654;51.142;14.924;2022-10-17T07:46:02;100100.50;;;18.18;69.41
63500;BME280;49654;51.142;14.924;2022-10-17T07:48:30;100101.53;;;18.37;68.68
63500;BME280;49654;51.142;14.924;2022-10-17T07:51:00;100115.28;;;18.52;68.56
63500;BME280;49654;51.142;14.924;2022-10-17T07:53:28;100106.78;;;18.57;67.74
63500;BME280;49654;51.142;14.924;2022-10-17T07:55:55;100104.16;;;18.70;67.88
63500;BME280;49654;51.142;14.924;2022-10-17T07:58:23;100082.72;;;18.47;67.14
63500;BME280;49654;51.142;14.924;2022-10-17T08:00:51;100124.59;;;18.82;67.54
63500;BME280;49654;51.142;14.924;2022-10-17T08:03:18;100121.75;;;18.90;67.26
63500;BME280;49654;51.142;14.924;2022-10-17T08:05:45;100120.50;;;18.92;65.58
63500;BME280;49654;51.142;14.924;2022-10-17T08:08:12;100084.09;;;18.83;66.13
63500;BME280;49654;51.142;14.924;2022-10-17T08:10:39;100128.56;;;19.17;66.44
63500;BME280;49654;51.142;14.924;2022-10-17T08:13:06;100126.91;;;19.30;66.54
63500;BME280;49654;51.142;14.924;2022-10-17T08:15:36;100115.91;;;19.39;65.19
63500;BME280;49654;51.142;14.924;2022-10-17T08:18:04;100104.06;;;19.68;64.89
63500;BME280;49654;51.142;14.924;2022-10-17T08:20:31;100103.19;;;20.38;62.76
63500;BME280;49654;51.142;14.924;2022-10-17T08:22:58;100019.00;;;20.36;58.60
63500;BME280;49654;51.142;14.924;2022-10-17T08:25:26;100070.91;;;21.41;58.11
63500;BME280;49654;51.142;14.924;2022-10-17T08:27:53;100033.97;;;22.06;55.98
63500;BME280;49654;51.142;14.924;2022-10-17T08:30:21;100122.88;;;22.96;53.59
63500;BME280;49654;51.142;14.924;2022-10-17T08:32:49;100082.50;;;23.46;51.29
63500;BME280;49654;51.142;14.924;2022-10-17T08:35:16;100094.94;;;23.86;49.54
63500;BME280;49654;51.142;14.924;2022-10-17T08:37:44;100116.41;;;24.01;49.82
63500;BME280;49654;51.142;14.924;2022-10-17T08:40:20;100105.81;;;24.35;48.95
63500;BME280;49654;51.142;14.924;2022-10-17T08:43:01;100084.25;;;24.65;48.17
63500;BME280;49654;51.142;14.924;2022-10-17T08:45:34;100074.22;;;24.50;46.92
63500;BME280;49654;51.142;14.924;2022-10-17T08:48:08;100108.63;;;23.66;49.86
63500;BME280;49654;51.142;14.924;2022-10-17T08:50:41;100062.19;;;22.83;51.71
63500;BME280;49654;51.142;14.924;2022-10-17T08:53:16;100111.00;;;22.75;52.64
63500;BME280;49654;51.142;14.924;2022-10-17T08:55:46;100042.22;;;22.10;53.30
63500;BME280;49654;51.142;14.924;2022-10-17T08:58:16;100104.63;;;22.17;54.37
63500;BME280;49654;51.142;14.924;2022-10-17T09:00:49;100109.38;;;21.97;55.63
63500;BME280;49654;51.142;14.924;2022-10-17T09:03:40;100114.16;;;21.88;54.16
63500;BME280;49654;51.142;14.924;2022-10-17T09:06:18;100111.38;;;21.71;55.61
63500;BME280;49654;51.142;14.924;2022-10-17T09:09:04;100058.94;;;21.38;56.57
63500;BME280;49654;51.142;14.924;2022-10-17T09:11:53;100109.25;;;21.92;56.58
63500;BME280;49654;51.142;14.924;2022-10-17T09:14:35;100100.09;;;22.06;55.37
63500;BME280;49654;51.142;14.924;2022-10-17T09:17:14;100120.44;;;22.36;54.38
63500;BME280;49654;51.142;14.924;2022-10-17T09:20:03;100126.31;;;22.61;53.79
63500;BME280;49654;51.142;14.924;2022-10-17T09:22:39;100110.16;;;22.16;54.61
63500;BME280;49654;51.142;14.924;2022-10-17T09:25:10;100072.38;;;21.97;54.90
63500;BME280;49654;51.142;14.924;2022-10-17T09:27:40;100107.03;;;22.31;54.09
63500;BME280;49654;51.142;14.924;2022-10-17T09:30:26;100105.22;;;22.01;55.91
63500;BME280;49654;51.142;14.924;2022-10-17T09:32:54;100096.16;;;22.09;54.93
63500;BME280;49654;51.142;14.924;2022-10-17T09:35:24;100114.47;;;22.10;55.24
63500;BME280;49654;51.142;14.924;2022-10-17T09:37:53;100012.44;;;21.91;55.64
63500;BME280;49654;51.142;14.924;2022-10-17T09:40:24;100059.53;;;22.24;55.73
63500;BME280;49654;51.142;14.924;2022-10-17T09:42:53;100076.91;;;22.20;53.79
63500;BME280;49654;51.142;14.924;2022-10-17T09:45:21;100115.38;;;22.58;54.54
63500;BME280;49654;51.142;14.924;2022-10-17T09:47:57;100121.44;;;22.46;54.36
63500;BME280;49654;51.142;14.924;2022-10-17T09:50:30;100116.97;;;23.06;53.92
63500;BME280;49654;51.142;14.924;2022-10-17T09:53:01;100116.00;;;23.35;53.19
63500;BME280;49654;51.142;14.924;2022-10-17T09:55:38;100126.44;;;22.90;52.53
63500;BME280;49654;51.142;14.924;2022-10-17T09:58:08;100121.13;;;22.90;52.58
63500;BME280;49654;51.142;14.924;2022-10-17T10:00:39;100019.59;;;22.14;53.28
63500;BME280;49654;51.142;14.924;2022-10-17T10:03:13;100128.88;;;22.91;53.59
63500;BME280;49654;51.142;14.924;2022-10-17T10:05:57;100049.84;;;22.77;52.91
63500;BME280;49654;51.142;14.924;2022-10-17T10:08:27;100131.59;;;23.08;52.88
63500;BME280;49654;51.142;14.924;2022-10-17T10:11:00;100135.06;;;23.09;52.39
63500;BME280;49654;51.142;14.924;2022-10-17T10:13:30;100019.03;;;22.59;52.44
63500;BME280;49654;51.142;14.924;2022-10-17T10:16:19;100118.59;;;22.95;52.02
63500;BME280;49654;51.142;14.924;2022-10-17T10:18:47;100132.28;;;22.57;53.69
63500;BME280;49654;51.142;14.924;2022-10-17T10:21:18;100016.22;;;21.83;54.13
63500;BME280;49654;51.142;14.924;2022-10-17T10:24:02;100121.59;;;22.40;54.69
63500;BME280;49654;51.142;14.924;2022-10-17T10:26:34;100078.41;;;22.16;55.11
63500;BME280;49654;51.142;14.924;2022-10-17T10:29:25;100068.25;;;22.13;55.86
63500;BME280;49654;51.142;14.924;2022-10-17T10:32:05;100115.81;;;22.55;54.23
63500;BME280;49654;51.142;14.924;2022-10-17T10:34:33;100118.00;;;22.46;53.60
63500;BME280;49654;51.142;14.924;2022-10-17T10:37:04;100096.13;;;22.86;53.86
63500;BME280;49654;51.142;14.924;2022-10-17T10:39:42;100106.38;;;22.82;53.38
63500;BME280;49654;51.142;14.924;2022-10-17T10:42:24;100104.31;;;22.72;53.64
63500;BME280;49654;51.142;14.924;2022-10-17T10:44:53;100122.97;;;22.66;54.18
63500;BME280;49654;51.142;14.924;2022-10-17T10:47:23;100116.97;;;22.70;53.25
63500;BME280;49654;51.142;14.924;2022-10-17T10:49:52;100110.41;;;22.73;53.46
63500;BME280;49654;51.142;14.924;2022-10-17T10:52:39;100107.88;;;22.78;52.93
63500;BME280;49654;51.142;14.924;2022-10-17T10:55:22;100106.03;;;22.67;53.09
63500;BME280;49654;51.142;14.924;2022-10-17T10:58:14;100062.53;;;22.51;53.04
63500;BME280;49654;51.142;14.924;2022-10-17T11:01:16;99953.69;;;21.89;53.19
63500;BME280;49654;51.142;14.924;2022-10-17T11:04:17;100064.94;;;22.64;52.15
63500;BME280;49654;51.142;14.924;2022-10-17T11:06:51;100035.78;;;22.88;52.18
63500;BME280;49654;51.142;14.924;2022-10-17T11:09:33;100015.63;;;22.87;52.24
63500;BME280;49654;51.142;14.924;2022-10-17T11:12:06;99989.84;;;22.94;51.78
63500;BME280;49654;51.142;14.924;2022-10-17T11:14:41;100103.84;;;23.51;51.30
63500;BME280;49654;51.142;14.924;2022-10-17T11:17:16;99973.50;;;22.21;51.86
63500;BME280;49654;51.142;14.924;2022-10-17T11:19:57;100009.59;;;22.63;52.14
63500;BME280;49654;51.142;14.924;2022-10-17T11:22:38;100040.41;;;22.92;51.50
63500;BME280;49654;51.142;14.924;2022-10-17T11:25:16;100012.41;;;22.85;51.49
63500;BME280;49654;51.142;14.924;2022-10-17T11:27:48;100104.84;;;23.21;51.73
63500;BME280;49654;51.142;14.924;2022-10-17T11:30:22;100083.88;;;23.20;50.90
63500;BME280;49654;51.142;14.924;2022-10-17T11:33:02;100089.53;;;23.52;50.75
63500;BME280;49654;51.142;14.924;2022-10-17T11:35:34;100056.94;;;23.52;50.73
63500;BME280;49654;51.142;14.924;2022-10-17T11:38:07;100033.88;;;23.52;50.12
63500;BME280;49654;51.142;14.924;2022-10-17T11:40:49;100031.34;;;23.45;49.83
63500;BME280;49654;51.142;14.924;2022-10-17T11:43:20;99965.03;;;22.60;50.72
63500;BME280;49654;51.142;14.924;2022-10-17T11:46:09;100020.66;;;23.12;51.48
63500;BME280;49654;51.142;14.924;2022-10-17T11:48:54;100080.63;;;23.58;50.33
63500;BME280;49654;51.142;14.924;2022-10-17T11:51:24;99946.22;;;22.85;50.18
63500;BME280;49654;51.142;14.924;2022-10-17T11:54:00;99960.00;;;22.87;50.37
63500;BME280;49654;51.142;14.924;2022-10-17T11:56:34;100067.94;;;23.60;51.12
63500;BME280;49654;51.142;14.924;2022-10-17T12:02:07;99963.22;;;23.74;48.47
63500;BME280;49654;51.142;14.924;2022-10-17T12:04:55;100025.41;;;24.17;48.00
63500;BME280;49654;51.142;14.924;2022-10-17T12:07:42;100022.69;;;23.95;48.18
63500;BME280;49654;51.142;14.924;2022-10-17T12:10:27;100046.06;;;23.82;48.63
63500;BME280;49654;51.142;14.924;2022-10-17T12:19:33;100050.16;;;26.04;44.59
63500;BME280;49654;51.142;14.924;2022-10-17T12:22:04;100042.16;;;26.41;43.38
63500;BME280;49654;51.142;14.924;2022-10-17T12:24:36;100043.88;;;26.52;42.32
63500;BME280;49654;51.142;14.924;2022-10-17T12:27:29;100041.53;;;27.34;41.37
63500;BME280;49654;51.142;14.924;2022-10-17T12:30:25;100038.06;;;27.38;41.21
63500;BME280;49654;51.142;14.924;2022-10-17T12:33:05;100031.47;;;27.77;40.08
63500;BME280;49654;51.142;14.924;2022-10-17T12:35:44;99973.13;;;26.87;41.08
63500;BME280;49654;51.142;14.924;2022-10-17T12:38:24;100020.84;;;26.88;41.90
63500;BME280;49654;51.142;14.924;2022-10-17T12:40:54;99938.69;;;25.38;42.83
63500;BME280;49654;51.142;14.924;2022-10-17T12:43:56;99894.53;;;24.56;44.26
63500;BME280;49654;51.142;14.924;2022-10-17T12:46:57;99922.59;;;24.30;45.45
63500;BME280;49654;51.142;14.924;2022-10-17T12:49:45;100033.34;;;25.98;44.31
63500;BME280;49654;51.142;14.924;2022-10-17T12:52:48;99974.31;;;25.37;43.94
63500;BME280;49654;51.142;14.924;2022-10-17T12:55:22;99951.44;;;25.73;42.94
63500;BME280;49654;51.142;14.924;2022-10-17T12:57:58;99946.19;;;26.20;40.76
63500;BME280;49654;51.142;14.924;2022-10-17T13:00:33;100001.44;;;27.03;41.27
63500;BME280;49654;51.142;14.924;2022-10-17T13:03:26;99970.00;;;27.10;40.92
63500;BME280;49654;51.142;14.924;2022-10-17T13:06:01;99938.31;;;27.44;38.72
63500;BME280;49654;51.142;14.924;2022-10-17T13:08:31;99971.84;;;28.22;38.37
63500;BME280;49654;51.142;14.924;2022-10-17T13:11:03;99975.63;;;30.28;34.12
63500;BME280;49654;51.142;14.924;2022-10-17T13:13:41;99969.53;;;31.59;32.06
63500;BME280;49654;51.142;14.924;2022-10-17T13:16:30;99962.38;;;33.29;30.50
63500;BME280;49654;51.142;14.924;2022-10-17T13:19:10;99890.84;;;33.59;28.10
63500;BME280;49654;51.142;14.924;2022-10-17T13:21:48;99998.06;;;34.10;28.17
63500;BME280;49654;51.142;14.924;2022-10-17T13:24:28;99909.78;;;33.76;28.17